모두
Fosston Muni/Anderson Fld Airport (Fosston, MN) FSE 기상
|
Fosston, MN (KFSE)
맑은 하늘
바람이 붐 |
|
7 °C |
There is no TAF data available at FSE or any nearby airports.
최근 FSE METAR 이력
| Date | Time (CDT) | Flight Rules | Wind Dir. | Speed | Type | Height AGL (ft) | Visibility | Temp (°C) | Temp (°F) | Dew Point (°C) | Dew Point (°F) | Rel. Humid. | Pressure | Density Altitude | Remarks |
|---|---|---|---|---|---|---|---|---|---|---|---|---|---|---|---|
| 04-5월 | 04:55 | VFR | 300° | 18 kt | 10 miles | 7° | 44° | 2° | 35° | 70% | 29.38 in Hg | 1,096 ft | Wind gusting to 28 KT | ||
| 04-5월 | 04:35 | VFR | 290° | 15 kt | 10 miles | 7° | 44° | 3° | 37° | 76% | 29.37 in Hg | 1,106 ft | Wind gusting to 18 KT | ||
| 04-5월 | 04:15 | VFR | 270° | 12 kt | 10 miles | 7° | 44° | 3° | 37° | 76% | 29.37 in Hg | 1,106 ft | |||
| 04-5월 | 03:55 | VFR | 270° | 12 kt | 10 miles |
6° | 42° | 3° | 37° | 81% | 29.36 in Hg | 996 ft | Wind gusting to 15 KT | ||
| 04-5월 | 03:35 | VFR | 260° | 9 kt | 7 miles |
6° | 42° | 4° | 39° | 87% | 29.37 in Hg | 986 ft | Wind gusting to 15 KT | ||
| 04-5월 | 03:15 | VFR | 300° | 14 kt | 10 miles | 7° | 44° | 3° | 37° | 76% | 29.39 in Hg | 1,086 ft | Rain, Wind gusting to 22 KT | ||
| 04-5월 | 02:55 | VFR | 320° | 13 kt | 10 miles | 8° | 46° | 3° | 37° | 71% | 29.40 in Hg | 1,196 ft | |||
| 04-5월 | 02:15 | VFR | 340° | 19 kt | 10 miles | 9° | 48° | 2° | 35° | 61% | 29.40 in Hg | 1,316 ft | Wind gusting to 24 KT | ||
| 04-5월 | 01:55 | VFR | 340° | 23 kt | 10 miles | 10° | 50° | 2° | 35° | 57% | 29.39 in Hg | 1,446 ft | Wind gusting to 30 KT | ||
| 04-5월 | 01:35 | VFR | 320° | 19 kt | 10 miles | 12° | 53° | 3° | 37° | 54% | 29.37 in Hg | 1,706 ft | Wind gusting to 30 KT | ||
| 04-5월 | 01:15 | VFR | 330° | 15 kt | 10 miles | 14° | 57° | 2° | 35° | 44% | 29.35 in Hg | 1,966 ft | Wind gusting to 22 KT | ||
| 04-5월 | 00:55 | VFR | 260° | 11 kt | 10 miles | 14° | 57° | 1° | 33° | 41% | 29.32 in Hg | 1,996 ft | Wind gusting to 15 KT | ||
| 04-5월 | 00:35 | VFR | 230° | 10 kt | 10 miles | 15° | 59° | 1° | 33° | 39% | 29.31 in Hg | 2,126 ft | |||
| 04-5월 | 00:15 | VFR | 240° | 14 kt | 10 miles | 15° | 59° | 0° | 32° | 36% | 29.32 in Hg | 2,116 ft | |||
| 03-5월 | 23:55 | VFR | 250° | 14 kt | 10 miles | 15° | 59° | 0° | 32° | 36% | 29.36 in Hg | 2,076 ft | Wind gusting to 22 KT | ||
| 03-5월 | 23:35 | VFR | 250° | 14 kt | 10 miles | 15° | 59° | -1° | 30° | 33% | 29.35 in Hg | 2,086 ft | Wind gusting to 22 KT | ||
| 03-5월 | 23:15 | VFR | 210° | 19 kt | 10 miles | 15° | 59° | -1° | 30° | 33% | 29.33 in Hg | 2,106 ft | Wind gusting to 24 KT | ||
| 03-5월 | 22:55 | VFR | 210° | 19 kt | 10 miles | 15° | 59° | -1° | 30° | 33% | 29.34 in Hg | 2,096 ft | Wind gusting to 25 KT | ||
| 03-5월 | 22:35 | VFR | 210° | 19 kt | 10 miles | 15° | 59° | -2° | 28° | 31% | 29.36 in Hg | 2,076 ft | Wind gusting to 24 KT | ||
| 03-5월 | 22:15 | VFR | 210° | 16 kt | 10 miles | 15° | 59° | -1° | 30° | 33% | 29.37 in Hg | 2,066 ft | |||
| 03-5월 | 21:55 | VFR | 200° | 15 kt | 10 miles | 15° | 59° | -1° | 30° | 33% | 29.39 in Hg | 2,046 ft | |||
| 03-5월 | 21:36 | VFR | 210° | 15 kt | 10 miles | 16° | 60° | -1° | 30° | 31% | 29.40 in Hg | 2,156 ft | |||
| 03-5월 | 21:15 | VFR | 210° | 13 kt | 10 miles | 16° | 60° | -1° | 30° | 31% | 29.42 in Hg | 2,136 ft | |||
| 03-5월 | 20:55 | VFR | 210° | 11 kt | 10 miles | 16° | 60° | -1° | 30° | 31% | 29.43 in Hg | 2,126 ft |
로그인
| 귀하의 브라우저는 지원되지 않습니다.. 브라우저를 업그레이드하세요 |
